sensor_id;sensor_type;location;lat;lon;timestamp;P1;durP1;ratioP1;P2;durP2;ratioP2
77214;SDS011;66210;53.282;9.864;2023-04-15T00:01:09;10.18;;;5.22;;
77214;SDS011;66210;53.282;9.864;2023-04-15T00:03:37;7.50;;;5.28;;
77214;SDS011;66210;53.282;9.864;2023-04-15T00:06:04;6.65;;;4.68;;
77214;SDS011;66210;53.282;9.864;2023-04-15T00:08:31;6.88;;;4.57;;
77214;SDS011;66210;53.282;9.864;2023-04-15T00:10:57;8.52;;;4.93;;
77214;SDS011;66210;53.282;9.864;2023-04-15T00:13:28;9.90;;;5.95;;
77214;SDS011;66210;53.282;9.864;2023-04-15T00:15:55;9.05;;;5.45;;
77214;SDS011;66210;53.282;9.864;2023-04-15T00:18:22;9.00;;;6.22;;
77214;SDS011;66210;53.282;9.864;2023-04-15T00:20:50;9.20;;;6.28;;
77214;SDS011;66210;53.282;9.864;2023-04-15T00:23:17;9.77;;;6.60;;
77214;SDS011;66210;53.282;9.864;2023-04-15T00:25:44;10.75;;;6.32;;
77214;SDS011;66210;53.282;9.864;2023-04-15T00:28:11;10.43;;;6.88;;
77214;SDS011;66210;53.282;9.864;2023-04-15T00:30:37;9.75;;;6.43;;
77214;SDS011;66210;53.282;9.864;2023-04-15T00:33:04;10.40;;;6.32;;
77214;SDS011;66210;53.282;9.864;2023-04-15T00:35:31;10.80;;;6.97;;
77214;SDS011;66210;53.282;9.864;2023-04-15T00:37:58;9.93;;;6.53;;
77214;SDS011;66210;53.282;9.864;2023-04-15T00:40:24;10.80;;;6.82;;
77214;SDS011;66210;53.282;9.864;2023-04-15T00:42:51;9.73;;;6.00;;
77214;SDS011;66210;53.282;9.864;2023-04-15T00:45:18;11.00;;;6.68;;
77214;SDS011;66210;53.282;9.864;2023-04-15T00:47:45;11.50;;;6.38;;
77214;SDS011;66210;53.282;9.864;2023-04-15T00:50:12;10.38;;;5.43;;
77214;SDS011;66210;53.282;9.864;2023-04-15T00:52:39;10.05;;;5.95;;
77214;SDS011;66210;53.282;9.864;2023-04-15T00:55:06;9.68;;;6.13;;
77214;SDS011;66210;53.282;9.864;2023-04-15T00:57:34;10.43;;;6.68;;
77214;SDS011;66210;53.282;9.864;2023-04-15T01:00:01;7.53;;;5.38;;
77214;SDS011;66210;53.282;9.864;2023-04-15T01:02:30;9.02;;;5.88;;
77214;SDS011;66210;53.282;9.864;2023-04-15T01:04:57;9.35;;;6.20;;
77214;SDS011;66210;53.282;9.864;2023-04-15T01:07:23;8.85;;;5.00;;
77214;SDS011;66210;53.282;9.864;2023-04-15T01:09:50;9.65;;;5.93;;
77214;SDS011;66210;53.282;9.864;2023-04-15T01:12:17;9.05;;;5.78;;
77214;SDS011;66210;53.282;9.864;2023-04-15T01:14:45;11.63;;;6.15;;
77214;SDS011;66210;53.282;9.864;2023-04-15T01:17:12;9.20;;;5.53;;
77214;SDS011;66210;53.282;9.864;2023-04-15T01:19:38;9.38;;;5.53;;
77214;SDS011;66210;53.282;9.864;2023-04-15T01:22:05;8.25;;;6.05;;
77214;SDS011;66210;53.282;9.864;2023-04-15T01:24:32;8.68;;;5.45;;
77214;SDS011;66210;53.282;9.864;2023-04-15T01:26:59;8.63;;;5.78;;
77214;SDS011;66210;53.282;9.864;2023-04-15T01:29:26;8.43;;;5.53;;
77214;SDS011;66210;53.282;9.864;2023-04-15T01:31:54;8.85;;;5.97;;
77214;SDS011;66210;53.282;9.864;2023-04-15T01:34:22;8.90;;;6.03;;
77214;SDS011;66210;53.282;9.864;2023-04-15T01:36:48;10.00;;;6.15;;
77214;SDS011;66210;53.282;9.864;2023-04-15T01:39:15;7.45;;;5.40;;
77214;SDS011;66210;53.282;9.864;2023-04-15T01:41:41;10.25;;;5.97;;
77214;SDS011;66210;53.282;9.864;2023-04-15T01:44:08;8.15;;;5.50;;
77214;SDS011;66210;53.282;9.864;2023-04-15T01:46:35;10.95;;;5.95;;
77214;SDS011;66210;53.282;9.864;2023-04-15T01:49:02;8.80;;;6.68;;
77214;SDS011;66210;53.282;9.864;2023-04-15T01:51:28;7.50;;;5.35;;
77214;SDS011;66210;53.282;9.864;2023-04-15T01:53:55;8.13;;;5.68;;
77214;SDS011;66210;53.282;9.864;2023-04-15T01:56:24;10.65;;;6.45;;
77214;SDS011;66210;53.282;9.864;2023-04-15T01:58:52;8.10;;;5.80;;
77214;SDS011;66210;53.282;9.864;2023-04-15T02:01:18;7.72;;;4.97;;
77214;SDS011;66210;53.282;9.864;2023-04-15T02:03:45;9.32;;;5.05;;
77214;SDS011;66210;53.282;9.864;2023-04-15T02:06:13;8.75;;;5.15;;
77214;SDS011;66210;53.282;9.864;2023-04-15T02:08:39;8.32;;;4.82;;
77214;SDS011;66210;53.282;9.864;2023-04-15T02:11:06;7.93;;;5.07;;
77214;SDS011;66210;53.282;9.864;2023-04-15T02:13:32;6.05;;;4.53;;
77214;SDS011;66210;53.282;9.864;2023-04-15T02:15:59;6.22;;;4.43;;
77214;SDS011;66210;53.282;9.864;2023-04-15T02:18:26;5.90;;;4.53;;
77214;SDS011;66210;53.282;9.864;2023-04-15T02:20:52;7.72;;;4.85;;
77214;SDS011;66210;53.282;9.864;2023-04-15T02:23:19;6.38;;;4.47;;
77214;SDS011;66210;53.282;9.864;2023-04-15T02:25:46;6.40;;;4.47;;
77214;SDS011;66210;53.282;9.864;2023-04-15T02:28:20;6.25;;;4.70;;
77214;SDS011;66210;53.282;9.864;2023-04-15T02:30:47;6.82;;;4.38;;
77214;SDS011;66210;53.282;9.864;2023-04-15T02:33:18;7.18;;;4.45;;
77214;SDS011;66210;53.282;9.864;2023-04-15T02:35:44;6.40;;;4.57;;
77214;SDS011;66210;53.282;9.864;2023-04-15T02:38:11;7.65;;;5.13;;
77214;SDS011;66210;53.282;9.864;2023-04-15T02:40:39;6.38;;;4.80;;
77214;SDS011;66210;53.282;9.864;2023-04-15T02:43:06;7.78;;;5.10;;
77214;SDS011;66210;53.282;9.864;2023-04-15T02:45:33;8.15;;;5.57;;
77214;SDS011;66210;53.282;9.864;2023-04-15T02:48:00;7.28;;;4.90;;
77214;SDS011;66210;53.282;9.864;2023-04-15T02:50:31;6.60;;;4.85;;
77214;SDS011;66210;53.282;9.864;2023-04-15T02:52:58;7.10;;;4.72;;
77214;SDS011;66210;53.282;9.864;2023-04-15T02:55:27;7.65;;;5.15;;
77214;SDS011;66210;53.282;9.864;2023-04-15T02:57:54;8.38;;;5.43;;
77214;SDS011;66210;53.282;9.864;2023-04-15T03:00:21;7.90;;;5.68;;
77214;SDS011;66210;53.282;9.864;2023-04-15T03:02:50;9.80;;;5.68;;
77214;SDS011;66210;53.282;9.864;2023-04-15T03:05:22;8.07;;;5.50;;
77214;SDS011;66210;53.282;9.864;2023-04-15T03:07:51;8.88;;;5.72;;
77214;SDS011;66210;53.282;9.864;2023-04-15T03:10:43;8.13;;;5.85;;
77214;SDS011;66210;53.282;9.864;2023-04-15T03:13:09;7.30;;;5.32;;
77214;SDS011;66210;53.282;9.864;2023-04-15T03:15:36;7.78;;;5.53;;
77214;SDS011;66210;53.282;9.864;2023-04-15T03:18:03;7.78;;;5.25;;
77214;SDS011;66210;53.282;9.864;2023-04-15T03:20:30;8.45;;;5.38;;
77214;SDS011;66210;53.282;9.864;2023-04-15T03:22:57;9.93;;;6.72;;
77214;SDS011;66210;53.282;9.864;2023-04-15T03:25:23;8.73;;;5.63;;
77214;SDS011;66210;53.282;9.864;2023-04-15T03:27:50;9.35;;;5.85;;
77214;SDS011;66210;53.282;9.864;2023-04-15T03:30:17;9.02;;;6.03;;
77214;SDS011;66210;53.282;9.864;2023-04-15T03:32:44;10.20;;;6.80;;
77214;SDS011;66210;53.282;9.864;2023-04-15T03:35:11;9.68;;;6.40;;
77214;SDS011;66210;53.282;9.864;2023-04-15T03:37:37;9.32;;;6.47;;
77214;SDS011;66210;53.282;9.864;2023-04-15T03:40:04;9.38;;;6.60;;
77214;SDS011;66210;53.282;9.864;2023-04-15T03:42:32;9.32;;;6.18;;
77214;SDS011;66210;53.282;9.864;2023-04-15T03:44:59;12.25;;;7.03;;
77214;SDS011;66210;53.282;9.864;2023-04-15T03:47:26;8.43;;;5.57;;
77214;SDS011;66210;53.282;9.864;2023-04-15T03:49:52;10.15;;;6.60;;
77214;SDS011;66210;53.282;9.864;2023-04-15T03:52:19;9.70;;;6.55;;
77214;SDS011;66210;53.282;9.864;2023-04-15T03:54:46;9.77;;;5.82;;
77214;SDS011;66210;53.282;9.864;2023-04-15T03:57:13;10.90;;;6.28;;
77214;SDS011;66210;53.282;9.864;2023-04-15T03:59:40;12.07;;;6.60;;
77214;SDS011;66210;53.282;9.864;2023-04-15T04:02:06;11.45;;;6.63;;
77214;SDS011;66210;53.282;9.864;2023-04-15T04:04:33;9.70;;;6.10;;
77214;SDS011;66210;53.282;9.864;2023-04-15T04:07:00;11.63;;;7.07;;
77214;SDS011;66210;53.282;9.864;2023-04-15T04:09:27;9.80;;;6.35;;
77214;SDS011;66210;53.282;9.864;2023-04-15T04:11:53;11.27;;;6.95;;
77214;SDS011;66210;53.282;9.864;2023-04-15T04:14:20;11.18;;;6.13;;
77214;SDS011;66210;53.282;9.864;2023-04-15T04:16:53;10.05;;;6.40;;
77214;SDS011;66210;53.282;9.864;2023-04-15T04:19:21;10.57;;;7.00;;
77214;SDS011;66210;53.282;9.864;2023-04-15T04:21:48;10.95;;;6.90;;
77214;SDS011;66210;53.282;9.864;2023-04-15T04:24:15;9.80;;;6.03;;
77214;SDS011;66210;53.282;9.864;2023-04-15T04:26:42;9.07;;;6.18;;
77214;SDS011;66210;53.282;9.864;2023-04-15T04:29:08;8.18;;;6.00;;
77214;SDS011;66210;53.282;9.864;2023-04-15T04:31:35;8.65;;;5.80;;
77214;SDS011;66210;53.282;9.864;2023-04-15T04:34:02;9.43;;;5.88;;
77214;SDS011;66210;53.282;9.864;2023-04-15T04:36:29;10.23;;;6.25;;
77214;SDS011;66210;53.282;9.864;2023-04-15T04:38:55;8.32;;;5.70;;
77214;SDS011;66210;53.282;9.864;2023-04-15T04:41:22;9.05;;;5.47;;
77214;SDS011;66210;53.282;9.864;2023-04-15T04:43:49;7.72;;;5.47;;
77214;SDS011;66210;53.282;9.864;2023-04-15T04:46:16;7.25;;;5.35;;
77214;SDS011;66210;53.282;9.864;2023-04-15T04:48:43;6.80;;;5.10;;
77214;SDS011;66210;53.282;9.864;2023-04-15T04:51:12;11.63;;;5.65;;
77214;SDS011;66210;53.282;9.864;2023-04-15T04:53:39;7.25;;;5.18;;
77214;SDS011;66210;53.282;9.864;2023-04-15T04:56:07;7.28;;;5.15;;
77214;SDS011;66210;53.282;9.864;2023-04-15T04:58:33;10.00;;;5.60;;
77214;SDS011;66210;53.282;9.864;2023-04-15T05:01:00;7.32;;;4.85;;
77214;SDS011;66210;53.282;9.864;2023-04-15T05:03:28;6.53;;;4.68;;
77214;SDS011;66210;53.282;9.864;2023-04-15T05:05:55;6.60;;;4.57;;
77214;SDS011;66210;53.282;9.864;2023-04-15T05:08:22;6.05;;;4.25;;
77214;SDS011;66210;53.282;9.864;2023-04-15T05:10:48;6.07;;;4.50;;
77214;SDS011;66210;53.282;9.864;2023-04-15T05:13:15;6.82;;;4.50;;
77214;SDS011;66210;53.282;9.864;2023-04-15T05:15:42;6.32;;;4.38;;
77214;SDS011;66210;53.282;9.864;2023-04-15T05:18:19;6.35;;;4.40;;
77214;SDS011;66210;53.282;9.864;2023-04-15T05:21:14;6.32;;;4.20;;
77214;SDS011;66210;53.282;9.864;2023-04-15T05:23:40;6.53;;;4.38;;
77214;SDS011;66210;53.282;9.864;2023-04-15T05:26:07;4.80;;;3.65;;
77214;SDS011;66210;53.282;9.864;2023-04-15T05:28:34;6.90;;;3.90;;
77214;SDS011;66210;53.282;9.864;2023-04-15T05:31:01;6.05;;;4.45;;
77214;SDS011;66210;53.282;9.864;2023-04-15T05:33:28;8.10;;;4.50;;
77214;SDS011;66210;53.282;9.864;2023-04-15T05:35:55;6.10;;;4.30;;
77214;SDS011;66210;53.282;9.864;2023-04-15T05:38:21;6.32;;;4.22;;
77214;SDS011;66210;53.282;9.864;2023-04-15T05:40:48;5.57;;;3.58;;
77214;SDS011;66210;53.282;9.864;2023-04-15T05:43:15;5.05;;;3.75;;
77214;SDS011;66210;53.282;9.864;2023-04-15T05:45:42;6.80;;;4.03;;
77214;SDS011;66210;53.282;9.864;2023-04-15T05:48:08;7.00;;;4.50;;
77214;SDS011;66210;53.282;9.864;2023-04-15T05:50:35;5.95;;;4.25;;
77214;SDS011;66210;53.282;9.864;2023-04-15T05:53:02;7.03;;;4.53;;
77214;SDS011;66210;53.282;9.864;2023-04-15T05:55:29;6.90;;;4.70;;
77214;SDS011;66210;53.282;9.864;2023-04-15T05:57:56;8.07;;;4.90;;
77214;SDS011;66210;53.282;9.864;2023-04-15T06:00:23;6.72;;;4.57;;
77214;SDS011;66210;53.282;9.864;2023-04-15T06:02:50;7.93;;;5.40;;
77214;SDS011;66210;53.282;9.864;2023-04-15T06:05:18;9.95;;;5.47;;
77214;SDS011;66210;53.282;9.864;2023-04-15T06:07:45;6.53;;;4.53;;
77214;SDS011;66210;53.282;9.864;2023-04-15T06:10:14;8.77;;;5.68;;
77214;SDS011;66210;53.282;9.864;2023-04-15T06:12:47;10.18;;;6.32;;
77214;SDS011;66210;53.282;9.864;2023-04-15T06:15:14;11.48;;;6.10;;
77214;SDS011;66210;53.282;9.864;2023-04-15T06:17:42;9.18;;;5.97;;
77214;SDS011;66210;53.282;9.864;2023-04-15T06:20:09;11.35;;;7.10;;
77214;SDS011;66210;53.282;9.864;2023-04-15T06:22:36;11.05;;;6.40;;
77214;SDS011;66210;53.282;9.864;2023-04-15T06:25:04;13.63;;;6.95;;
77214;SDS011;66210;53.282;9.864;2023-04-15T06:27:34;11.88;;;7.30;;
77214;SDS011;66210;53.282;9.864;2023-04-15T06:30:00;11.77;;;7.75;;
77214;SDS011;66210;53.282;9.864;2023-04-15T06:32:27;12.18;;;7.80;;
77214;SDS011;66210;53.282;9.864;2023-04-15T06:34:54;12.85;;;7.85;;
77214;SDS011;66210;53.282;9.864;2023-04-15T06:37:20;15.90;;;8.48;;
77214;SDS011;66210;53.282;9.864;2023-04-15T06:39:47;15.65;;;8.75;;
77214;SDS011;66210;53.282;9.864;2023-04-15T06:42:14;14.75;;;8.20;;
77214;SDS011;66210;53.282;9.864;2023-04-15T06:44:41;16.77;;;10.25;;
77214;SDS011;66210;53.282;9.864;2023-04-15T06:47:08;16.77;;;9.88;;
77214;SDS011;66210;53.282;9.864;2023-04-15T06:49:35;17.02;;;9.88;;
77214;SDS011;66210;53.282;9.864;2023-04-15T06:52:02;19.25;;;10.18;;
77214;SDS011;66210;53.282;9.864;2023-04-15T06:54:30;20.13;;;11.07;;
77214;SDS011;66210;53.282;9.864;2023-04-15T06:56:57;19.40;;;11.38;;
77214;SDS011;66210;53.282;9.864;2023-04-15T06:59:24;19.38;;;11.15;;
77214;SDS011;66210;53.282;9.864;2023-04-15T07:01:50;21.02;;;11.90;;
77214;SDS011;66210;53.282;9.864;2023-04-15T07:04:17;23.25;;;12.73;;
77214;SDS011;66210;53.282;9.864;2023-04-15T07:06:44;23.52;;;14.40;;
77214;SDS011;66210;53.282;9.864;2023-04-15T07:09:11;21.85;;;13.07;;
77214;SDS011;66210;53.282;9.864;2023-04-15T07:11:38;23.88;;;13.15;;
77214;SDS011;66210;53.282;9.864;2023-04-15T07:14:05;27.58;;;15.57;;
77214;SDS011;66210;53.282;9.864;2023-04-15T07:16:32;27.80;;;15.23;;
77214;SDS011;66210;53.282;9.864;2023-04-15T07:18:58;28.33;;;15.50;;
77214;SDS011;66210;53.282;9.864;2023-04-15T07:21:26;27.08;;;15.77;;
77214;SDS011;66210;53.282;9.864;2023-04-15T07:23:53;29.95;;;16.33;;
77214;SDS011;66210;53.282;9.864;2023-04-15T07:26:19;28.25;;;16.65;;
77214;SDS011;66210;53.282;9.864;2023-04-15T07:28:46;34.83;;;17.00;;
77214;SDS011;66210;53.282;9.864;2023-04-15T07:31:13;28.38;;;16.88;;
77214;SDS011;66210;53.282;9.864;2023-04-15T07:33:40;32.17;;;17.27;;
77214;SDS011;66210;53.282;9.864;2023-04-15T07:36:07;33.20;;;17.70;;
77214;SDS011;66210;53.282;9.864;2023-04-15T07:38:34;36.33;;;18.98;;
77214;SDS011;66210;53.282;9.864;2023-04-15T07:41:01;31.55;;;18.40;;
77214;SDS011;66210;53.282;9.864;2023-04-15T07:43:28;34.65;;;18.50;;
77214;SDS011;66210;53.282;9.864;2023-04-15T07:45:55;38.55;;;20.02;;
77214;SDS011;66210;53.282;9.864;2023-04-15T07:48:21;34.88;;;20.05;;
77214;SDS011;66210;53.282;9.864;2023-04-15T07:50:48;35.10;;;18.40;;
77214;SDS011;66210;53.282;9.864;2023-04-15T07:53:15;36.10;;;20.10;;
77214;SDS011;66210;53.282;9.864;2023-04-15T07:55:42;36.92;;;19.63;;
77214;SDS011;66210;53.282;9.864;2023-04-15T07:58:08;36.15;;;20.13;;
77214;SDS011;66210;53.282;9.864;2023-04-15T08:00:35;36.95;;;18.40;;
77214;SDS011;66210;53.282;9.864;2023-04-15T08:03:03;39.58;;;21.35;;
77214;SDS011;66210;53.282;9.864;2023-04-15T08:05:30;38.65;;;21.83;;
77214;SDS011;66210;53.282;9.864;2023-04-15T08:10:28;43.65;;;22.35;;
77214;SDS011;66210;53.282;9.864;2023-04-15T08:12:55;43.97;;;21.63;;
77214;SDS011;66210;53.282;9.864;2023-04-15T08:15:22;41.95;;;23.13;;
77214;SDS011;66210;53.282;9.864;2023-04-15T08:17:49;41.85;;;23.45;;
77214;SDS011;66210;53.282;9.864;2023-04-15T08:20:16;45.95;;;24.25;;
77214;SDS011;66210;53.282;9.864;2023-04-15T08:22:43;42.22;;;22.80;;
77214;SDS011;66210;53.282;9.864;2023-04-15T08:25:10;46.33;;;23.95;;
77214;SDS011;66210;53.282;9.864;2023-04-15T08:27:36;45.90;;;23.52;;
77214;SDS011;66210;53.282;9.864;2023-04-15T08:30:03;44.58;;;24.92;;
77214;SDS011;66210;53.282;9.864;2023-04-15T08:32:30;48.30;;;24.45;;
77214;SDS011;66210;53.282;9.864;2023-04-15T08:34:57;49.70;;;24.27;;
77214;SDS011;66210;53.282;9.864;2023-04-15T08:37:24;47.25;;;24.95;;
77214;SDS011;66210;53.282;9.864;2023-04-15T08:39:52;45.72;;;24.42;;
77214;SDS011;66210;53.282;9.864;2023-04-15T08:42:21;49.83;;;24.55;;
77214;SDS011;66210;53.282;9.864;2023-04-15T08:44:52;40.28;;;24.58;;
77214;SDS011;66210;53.282;9.864;2023-04-15T08:47:20;44.65;;;22.85;;
77214;SDS011;66210;53.282;9.864;2023-04-15T08:49:52;48.58;;;25.45;;
77214;SDS011;66210;53.282;9.864;2023-04-15T08:52:20;43.22;;;22.92;;
77214;SDS011;66210;53.282;9.864;2023-04-15T08:54:47;45.78;;;24.63;;
77214;SDS011;66210;53.282;9.864;2023-04-15T08:57:14;47.05;;;25.30;;
77214;SDS011;66210;53.282;9.864;2023-04-15T08:59:41;44.05;;;23.10;;
77214;SDS011;66210;53.282;9.864;2023-04-15T09:02:08;50.38;;;24.80;;
77214;SDS011;66210;53.282;9.864;2023-04-15T09:04:35;45.55;;;24.85;;
77214;SDS011;66210;53.282;9.864;2023-04-15T09:07:01;46.33;;;23.00;;
77214;SDS011;66210;53.282;9.864;2023-04-15T09:09:28;41.50;;;23.13;;
77214;SDS011;66210;53.282;9.864;2023-04-15T09:11:54;44.70;;;24.02;;
77214;SDS011;66210;53.282;9.864;2023-04-15T09:14:21;48.30;;;25.40;;
77214;SDS011;66210;53.282;9.864;2023-04-15T09:16:55;49.92;;;25.42;;
77214;SDS011;66210;53.282;9.864;2023-04-15T09:21:58;44.58;;;22.85;;
77214;SDS011;66210;53.282;9.864;2023-04-15T09:24:32;45.72;;;24.20;;
77214;SDS011;66210;53.282;9.864;2023-04-15T09:27:02;47.13;;;24.95;;
77214;SDS011;66210;53.282;9.864;2023-04-15T09:29:29;49.90;;;27.52;;
77214;SDS011;66210;53.282;9.864;2023-04-15T09:31:57;48.22;;;25.45;;
77214;SDS011;66210;53.282;9.864;2023-04-15T09:34:36;46.63;;;25.27;;
77214;SDS011;66210;53.282;9.864;2023-04-15T09:37:03;47.92;;;25.92;;
77214;SDS011;66210;53.282;9.864;2023-04-15T09:39:45;50.53;;;24.90;;
77214;SDS011;66210;53.282;9.864;2023-04-15T09:42:17;50.15;;;26.92;;
77214;SDS011;66210;53.282;9.864;2023-04-15T09:44:50;49.60;;;26.80;;
77214;SDS011;66210;53.282;9.864;2023-04-15T09:47:30;51.75;;;25.50;;
77214;SDS011;66210;53.282;9.864;2023-04-15T09:49:58;66.88;;;29.63;;
77214;SDS011;66210;53.282;9.864;2023-04-15T09:52:25;53.97;;;27.00;;
77214;SDS011;66210;53.282;9.864;2023-04-15T09:54:53;70.45;;;29.00;;
77214;SDS011;66210;53.282;9.864;2023-04-15T09:57:23;49.70;;;25.50;;
77214;SDS011;66210;53.282;9.864;2023-04-15T09:59:50;54.53;;;27.98;;
77214;SDS011;66210;53.282;9.864;2023-04-15T10:02:17;57.13;;;28.80;;
77214;SDS011;66210;53.282;9.864;2023-04-15T10:04:47;52.22;;;27.80;;
77214;SDS011;66210;53.282;9.864;2023-04-15T10:07:14;51.90;;;27.33;;
77214;SDS011;66210;53.282;9.864;2023-04-15T10:09:40;56.67;;;28.35;;
77214;SDS011;66210;53.282;9.864;2023-04-15T10:12:10;53.50;;;27.63;;
77214;SDS011;66210;53.282;9.864;2023-04-15T10:14:37;95.25;;;28.83;;
77214;SDS011;66210;53.282;9.864;2023-04-15T10:17:08;59.80;;;28.50;;
77214;SDS011;66210;53.282;9.864;2023-04-15T10:19:36;50.80;;;25.92;;
77214;SDS011;66210;53.282;9.864;2023-04-15T10:22:03;54.17;;;27.58;;
77214;SDS011;66210;53.282;9.864;2023-04-15T10:24:31;54.90;;;28.17;;
77214;SDS011;66210;53.282;9.864;2023-04-15T10:26:59;52.95;;;28.27;;
77214;SDS011;66210;53.282;9.864;2023-04-15T10:29:29;56.05;;;27.92;;
77214;SDS011;66210;53.282;9.864;2023-04-15T10:31:57;47.40;;;26.98;;
77214;SDS011;66210;53.282;9.864;2023-04-15T10:34:24;49.25;;;27.05;;
77214;SDS011;66210;53.282;9.864;2023-04-15T10:37:01;47.63;;;27.27;;
77214;SDS011;66210;53.282;9.864;2023-04-15T10:39:37;50.58;;;26.30;;
77214;SDS011;66210;53.282;9.864;2023-04-15T10:42:06;44.58;;;25.88;;
77214;SDS011;66210;53.282;9.864;2023-04-15T10:44:41;54.75;;;27.58;;
77214;SDS011;66210;53.282;9.864;2023-04-15T10:47:13;52.55;;;28.33;;
77214;SDS011;66210;53.282;9.864;2023-04-15T10:49:44;48.38;;;28.25;;
77214;SDS011;66210;53.282;9.864;2023-04-15T10:52:16;39.35;;;24.17;;
77214;SDS011;66210;53.282;9.864;2023-04-15T10:54:47;45.95;;;26.65;;
77214;SDS011;66210;53.282;9.864;2023-04-15T10:57:20;42.38;;;25.27;;
77214;SDS011;66210;53.282;9.864;2023-04-15T11:00:01;46.55;;;25.13;;
77214;SDS011;66210;53.282;9.864;2023-04-15T11:02:51;43.72;;;24.23;;
77214;SDS011;66210;53.282;9.864;2023-04-15T11:05:19;45.92;;;27.23;;
77214;SDS011;66210;53.282;9.864;2023-04-15T11:12:51;43.10;;;26.15;;
77214;SDS011;66210;53.282;9.864;2023-04-15T11:20:49;49.28;;;26.45;;
77214;SDS011;66210;53.282;9.864;2023-04-15T11:23:28;43.92;;;25.63;;
77214;SDS011;66210;53.282;9.864;2023-04-15T11:26:04;40.10;;;24.83;;
77214;SDS011;66210;53.282;9.864;2023-04-15T11:28:34;39.58;;;24.90;;
77214;SDS011;66210;53.282;9.864;2023-04-15T11:33:31;37.08;;;22.05;;
77214;SDS011;66210;53.282;9.864;2023-04-15T11:35:57;37.13;;;21.73;;
77214;SDS011;66210;53.282;9.864;2023-04-15T11:38:24;34.97;;;19.75;;
77214;SDS011;66210;53.282;9.864;2023-04-15T11:40:50;38.80;;;22.92;;
77214;SDS011;66210;53.282;9.864;2023-04-15T11:43:19;39.70;;;21.35;;
77214;SDS011;66210;53.282;9.864;2023-04-15T11:45:54;34.58;;;21.00;;
77214;SDS011;66210;53.282;9.864;2023-04-15T11:48:23;31.45;;;20.67;;
77214;SDS011;66210;53.282;9.864;2023-04-15T11:51:01;35.92;;;21.10;;
77214;SDS011;66210;53.282;9.864;2023-04-15T11:53:40;34.92;;;22.02;;
77214;SDS011;66210;53.282;9.864;2023-04-15T11:56:17;35.25;;;20.55;;
77214;SDS011;66210;53.282;9.864;2023-04-15T11:58:58;37.05;;;22.42;;
77214;SDS011;66210;53.282;9.864;2023-04-15T12:01:34;33.80;;;20.35;;
77214;SDS011;66210;53.282;9.864;2023-04-15T12:04:10;37.70;;;20.52;;
77214;SDS011;66210;53.282;9.864;2023-04-15T12:06:41;33.33;;;20.23;;
77214;SDS011;66210;53.282;9.864;2023-04-15T12:09:09;33.92;;;20.27;;
77214;SDS011;66210;53.282;9.864;2023-04-15T12:11:38;30.98;;;17.25;;
77214;SDS011;66210;53.282;9.864;2023-04-15T12:14:08;21.48;;;14.43;;
77214;SDS011;66210;53.282;9.864;2023-04-15T12:16:42;23.40;;;13.23;;
77214;SDS011;66210;53.282;9.864;2023-04-15T12:19:18;19.52;;;12.52;;
77214;SDS011;66210;53.282;9.864;2023-04-15T12:21:48;22.77;;;12.10;;
77214;SDS011;66210;53.282;9.864;2023-04-15T12:24:18;19.38;;;11.80;;
77214;SDS011;66210;53.282;9.864;2023-04-15T12:26:50;20.27;;;12.20;;
77214;SDS011;66210;53.282;9.864;2023-04-15T12:29:19;14.60;;;10.35;;
77214;SDS011;66210;53.282;9.864;2023-04-15T12:31:57;19.33;;;11.73;;
77214;SDS011;66210;53.282;9.864;2023-04-15T12:34:49;16.38;;;10.60;;
77214;SDS011;66210;53.282;9.864;2023-04-15T12:37:16;15.77;;;10.18;;
77214;SDS011;66210;53.282;9.864;2023-04-15T12:39:44;13.38;;;8.88;;
77214;SDS011;66210;53.282;9.864;2023-04-15T12:42:14;15.05;;;9.85;;
77214;SDS011;66210;53.282;9.864;2023-04-15T12:44:41;14.30;;;10.07;;
77214;SDS011;66210;53.282;9.864;2023-04-15T12:47:08;17.98;;;9.88;;
77214;SDS011;66210;53.282;9.864;2023-04-15T12:49:36;16.73;;;10.75;;
77214;SDS011;66210;53.282;9.864;2023-04-15T12:52:03;15.85;;;9.38;;
77214;SDS011;66210;53.282;9.864;2023-04-15T12:54:30;15.15;;;9.75;;
77214;SDS011;66210;53.282;9.864;2023-04-15T12:56:57;22.80;;;10.80;;
77214;SDS011;66210;53.282;9.864;2023-04-15T12:59:25;17.10;;;10.68;;
77214;SDS011;66210;53.282;9.864;2023-04-15T13:01:52;17.92;;;10.80;;
77214;SDS011;66210;53.282;9.864;2023-04-15T13:04:20;16.17;;;10.38;;
77214;SDS011;66210;53.282;9.864;2023-04-15T13:06:47;14.98;;;10.50;;
77214;SDS011;66210;53.282;9.864;2023-04-15T13:09:14;15.48;;;10.75;;
77214;SDS011;66210;53.282;9.864;2023-04-15T13:11:41;15.13;;;10.45;;
77214;SDS011;66210;53.282;9.864;2023-04-15T13:14:08;16.65;;;11.48;;
77214;SDS011;66210;53.282;9.864;2023-04-15T13:16:37;15.55;;;10.73;;
77214;SDS011;66210;53.282;9.864;2023-04-15T13:19:04;13.50;;;9.32;;
77214;SDS011;66210;53.282;9.864;2023-04-15T13:21:31;12.07;;;9.13;;
77214;SDS011;66210;53.282;9.864;2023-04-15T13:24:04;14.20;;;9.95;;
77214;SDS011;66210;53.282;9.864;2023-04-15T13:26:32;17.75;;;9.27;;
77214;SDS011;66210;53.282;9.864;2023-04-15T13:28:59;19.58;;;10.73;;
77214;SDS011;66210;53.282;9.864;2023-04-15T13:31:26;13.55;;;9.73;;
77214;SDS011;66210;53.282;9.864;2023-04-15T13:33:55;12.98;;;9.15;;
77214;SDS011;66210;53.282;9.864;2023-04-15T13:36:22;15.23;;;9.48;;
77214;SDS011;66210;53.282;9.864;2023-04-15T13:38:49;15.25;;;9.40;;
77214;SDS011;66210;53.282;9.864;2023-04-15T13:41:17;13.55;;;9.20;;
77214;SDS011;66210;53.282;9.864;2023-04-15T13:43:44;24.35;;;8.98;;
77214;SDS011;66210;53.282;9.864;2023-04-15T13:46:11;12.75;;;8.50;;
77214;SDS011;66210;53.282;9.864;2023-04-15T13:48:37;13.98;;;8.50;;
77214;SDS011;66210;53.282;9.864;2023-04-15T13:51:05;15.98;;;9.13;;
77214;SDS011;66210;53.282;9.864;2023-04-15T13:53:32;14.80;;;8.77;;
77214;SDS011;66210;53.282;9.864;2023-04-15T13:56:04;12.65;;;8.02;;
77214;SDS011;66210;53.282;9.864;2023-04-15T13:58:32;13.85;;;7.53;;
77214;SDS011;66210;53.282;9.864;2023-04-15T14:00:59;12.50;;;8.35;;
77214;SDS011;66210;53.282;9.864;2023-04-15T14:03:29;12.52;;;8.20;;
77214;SDS011;66210;53.282;9.864;2023-04-15T14:05:56;14.35;;;8.57;;
77214;SDS011;66210;53.282;9.864;2023-04-15T14:08:27;14.05;;;8.43;;
77214;SDS011;66210;53.282;9.864;2023-04-15T14:10:55;12.73;;;8.88;;
77214;SDS011;66210;53.282;9.864;2023-04-15T14:13:22;13.38;;;8.45;;
77214;SDS011;66210;53.282;9.864;2023-04-15T14:15:49;11.48;;;8.63;;
77214;SDS011;66210;53.282;9.864;2023-04-15T14:18:16;11.65;;;8.23;;
77214;SDS011;66210;53.282;9.864;2023-04-15T14:20:43;10.68;;;8.63;;
77214;SDS011;66210;53.282;9.864;2023-04-15T14:23:09;13.50;;;9.50;;
77214;SDS011;66210;53.282;9.864;2023-04-15T14:25:36;12.52;;;9.02;;
77214;SDS011;66210;53.282;9.864;2023-04-15T14:28:04;18.08;;;9.18;;
77214;SDS011;66210;53.282;9.864;2023-04-15T14:30:31;16.20;;;9.23;;
77214;SDS011;66210;53.282;9.864;2023-04-15T14:32:58;14.88;;;9.27;;
77214;SDS011;66210;53.282;9.864;2023-04-15T14:35:27;15.27;;;9.15;;
77214;SDS011;66210;53.282;9.864;2023-04-15T14:37:54;16.48;;;10.10;;
77214;SDS011;66210;53.282;9.864;2023-04-15T14:40:21;14.95;;;9.82;;
77214;SDS011;66210;53.282;9.864;2023-04-15T14:42:49;13.98;;;9.43;;
77214;SDS011;66210;53.282;9.864;2023-04-15T14:45:16;14.38;;;9.10;;
77214;SDS011;66210;53.282;9.864;2023-04-15T14:47:43;16.23;;;10.07;;
77214;SDS011;66210;53.282;9.864;2023-04-15T14:50:10;15.57;;;10.10;;
77214;SDS011;66210;53.282;9.864;2023-04-15T14:52:37;15.13;;;9.70;;
77214;SDS011;66210;53.282;9.864;2023-04-15T14:55:05;14.20;;;8.68;;
77214;SDS011;66210;53.282;9.864;2023-04-15T14:57:33;16.77;;;9.68;;